Crocheron, Maryland
Current Conditions -  °F | °C
As of 1:52 PM on Friday 21 Nov 2014 (Local Time) from KNHK Reporting Station
Few Clouds Few Clouds  
Wind Chill: 29°   Ceiling: Unl
Heat Index: 38°   Visibility: 10mi
Dew Point:   Wind: 17mph
Humidity: 29%   Direction: 320°NW
Pressure: 30.45"   Gusts: NA
Location:  38.24°N, 76.05°W
Report Text: KNHK 211852Z 32015KT 10SM FEW050 03/M13 A3045 RMK AO2 SLP310 T00331133
Loading
Personal Weather Stations






























Interactive Weather Map New forecast layout! Learn more

10-Day Weather Forecast

Advertisements
Track Severe Weather on mobile